Time;durP1;ratioP1;P1;durP2;ratioP2;P2;SDS_P1;SDS_P2;PMS_P1;PMS_P2;Temp;Humidity;BMP_temperature;BMP_pressure;BME280_temperature;BME280_humidity;BME280_pressure;Samples;Min_cycle;Max_cycle;Signal;HPM_P1;HPM_P2
2022/03/29 00:00:18;;;;;;;13.53;10.23;;;;;;;5.33;100.00;96820.19;5001697;28;20220;-66
2022/03/29 00:02:47;;;;;;;10.17;9.17;;;;;;;5.22;100.00;96812.59;5003542;28;20200;-62
2022/03/29 00:05:15;;;;;;;10.40;9.10;;;;;;;5.14;100.00;96813.41;4999132;28;20209;-66
2022/03/29 00:07:44;;;;;;;10.40;9.47;;;;;;;5.08;100.00;96814.03;5000342;28;20495;-65
2022/03/29 00:10:13;;;;;;;9.97;8.43;;;;;;;5.08;100.00;96814.03;5003315;28;20420;-63
2022/03/29 00:12:43;;;;;;;10.93;8.70;;;;;;;5.11;100.00;96807.63;4964130;28;20789;-63
2022/03/29 00:15:11;;;;;;;9.90;9.00;;;;;;;5.09;100.00;96807.78;5002523;28;20209;-64
2022/03/29 00:17:40;;;;;;;12.87;9.43;;;;;;;5.02;100.00;96804.16;5001528;28;20193;-63
2022/03/29 00:20:09;;;;;;;10.70;8.77;;;;;;;4.96;100.00;96803.00;5006643;28;20230;-66
2022/03/29 00:26:07;;;;;;;9.73;8.43;;;;;;;4.96;100.00;96797.75;4962957;28;20803;-65
2022/03/29 00:28:37;;;;;;;10.33;8.93;;;;;;;4.89;100.00;96789.66;4998195;28;20236;-66
2022/03/29 00:31:05;;;;;;;12.33;9.43;;;;;;;4.83;100.00;96787.69;5004540;28;20227;-66
2022/03/29 00:33:33;;;;;;;10.40;8.90;;;;;;;4.78;100.00;96785.50;5006525;28;20967;-67
2022/03/29 00:36:01;;;;;;;9.60;8.33;;;;;;;4.85;100.00;96783.09;5000817;28;20322;-66
2022/03/29 00:38:30;;;;;;;10.60;8.20;;;;;;;4.96;100.00;96789.03;5004526;28;20207;-67
2022/03/29 00:40:59;;;;;;;10.37;8.87;;;;;;;5.01;100.00;96787.59;4996891;28;20283;-66
2022/03/29 00:43:28;;;;;;;10.10;8.93;;;;;;;5.05;100.00;96775.78;4973740;28;20216;-65
2022/03/29 00:45:58;;;;;;;10.40;9.30;;;;;;;5.09;100.00;96783.34;5003145;28;20613;-66
2022/03/29 00:48:26;;;;;;;12.10;9.20;;;;;;;4.96;100.00;96768.88;5000626;28;20309;-64
2022/03/29 00:50:55;;;;;;;11.80;8.47;;;;;;;5.03;100.00;96776.91;5005725;28;20657;-61
2022/03/29 00:53:24;;;;;;;10.77;9.47;;;;;;;4.98;100.00;96771.31;5001706;28;21030;-65
2022/03/29 00:55:54;;;;;;;11.63;9.47;;;;;;;4.89;100.00;96755.53;5005494;28;20263;-64
2022/03/29 00:58:22;;;;;;;12.73;10.40;;;;;;;4.81;100.00;96771.28;4964886;28;20303;-67
2022/03/29 01:00:52;;;;;;;12.27;9.57;;;;;;;4.77;100.00;96767.31;5001494;28;20979;-68
2022/03/29 01:03:22;;;;;;;13.13;8.60;;;;;;;4.72;100.00;96765.16;5002260;28;20817;-66
2022/03/29 01:05:50;;;;;;;10.80;9.03;;;;;;;4.66;100.00;96759.69;5003428;28;20208;-67
2022/03/29 01:08:19;;;;;;;11.97;9.23;;;;;;;4.75;100.00;96753.53;5006096;28;21060;-65
2022/03/29 01:10:47;;;;;;;10.60;9.27;;;;;;;4.77;100.00;96754.19;5007451;28;20252;-65
2022/03/29 01:13:16;;;;;;;10.60;8.87;;;;;;;4.79;100.00;96744.34;4966672;28;20295;-63
2022/03/29 01:15:44;;;;;;;9.50;8.50;;;;;;;4.77;100.00;96735.81;5004543;28;20242;-62
2022/03/29 01:18:12;;;;;;;9.57;8.57;;;;;;;4.73;100.00;96737.94;5004834;28;20236;-68
2022/03/29 01:20:44;;;;;;;10.17;9.10;;;;;;;4.67;100.00;96735.09;5002277;28;20779;-64
2022/03/29 01:23:14;;;;;;;9.77;8.73;;;;;;;4.59;100.00;96728.84;5001885;28;20287;-67
2022/03/29 01:25:44;;;;;;;10.70;9.53;;;;;;;4.60;100.00;96719.19;4999749;28;20742;-65
2022/03/29 01:28:13;;;;;;;11.40;10.20;;;;;;;4.70;100.00;96729.53;4966517;28;20776;-63
2022/03/29 01:30:41;;;;;;;13.83;9.27;;;;;;;4.72;100.00;96722.31;5004279;28;20333;-63
2022/03/29 01:33:10;;;;;;;10.23;9.20;;;;;;;4.74;100.00;96715.94;5006585;28;20215;-63
2022/03/29 01:35:40;;;;;;;11.37;9.37;;;;;;;4.72;100.00;96711.81;5011244;28;20796;-64
2022/03/29 01:38:08;;;;;;;13.47;9.83;;;;;;;4.68;100.00;96713.13;5004502;28;20829;-64
2022/03/29 01:40:37;;;;;;;10.37;8.87;;;;;;;4.65;100.00;96711.66;5010022;28;20316;-64
2022/03/29 01:43:06;;;;;;;11.20;10.10;;;;;;;4.51;100.00;96693.88;4989243;28;20209;-63
2022/03/29 01:45:35;;;;;;;12.07;9.53;;;;;;;4.57;100.00;96707.19;4990524;28;20216;-62
2022/03/29 01:48:03;;;;;;;10.80;9.70;;;;;;;4.51;100.00;96704.34;5012872;28;20316;-66
2022/03/29 01:50:32;;;;;;;10.57;9.43;;;;;;;4.48;100.00;96700.25;5003717;28;20425;-59
2022/03/29 01:53:00;;;;;;;11.33;9.30;;;;;;;4.43;100.00;96702.53;5010288;28;20304;-63
2022/03/29 01:55:28;;;;;;;10.83;9.10;;;;;;;4.40;100.00;96693.19;5001433;28;20291;-63
2022/03/29 01:57:58;;;;;;;10.97;8.53;;;;;;;4.47;100.00;96690.75;5005339;28;20240;-63
2022/03/29 02:00:34;;;;;;;10.37;9.37;;;;;;;4.49;100.00;96678.31;4981410;28;20224;-63
2022/03/29 02:03:05;;;;;;;9.97;8.97;;;;;;;4.49;100.00;96678.31;5002861;28;20688;-65
2022/03/29 02:05:33;;;;;;;11.03;9.33;;;;;;;4.42;100.00;96670.22;5002684;28;20291;-64
2022/03/29 02:08:02;;;;;;;12.27;10.03;;;;;;;4.53;100.00;96676.16;5005144;28;20294;-64
2022/03/29 02:10:31;;;;;;;11.13;10.03;;;;;;;4.42;100.00;96664.19;5004037;28;20220;-67
2022/03/29 02:13:01;;;;;;;12.07;10.97;;;;;;;4.40;100.00;96669.56;5008233;28;20356;-64
2022/03/29 02:15:29;;;;;;;11.47;10.07;;;;;;;4.41;100.00;96665.16;4970373;28;20309;-64
2022/03/29 02:17:57;;;;;;;17.83;8.83;;;;;;;4.37;100.00;96667.25;5004487;28;20290;-63
2022/03/29 02:20:28;;;;;;;11.17;10.07;;;;;;;4.28;100.00;96663.78;5002429;28;20235;-63
2022/03/29 02:22:56;;;;;;;9.77;8.87;;;;;;;4.24;100.00;96659.81;5006948;28;20270;-67
2022/03/29 02:25:24;;;;;;;11.13;9.83;;;;;;;4.23;100.00;96657.38;5002450;28;20213;-63
2022/03/29 02:27:53;;;;;;;10.00;8.97;;;;;;;4.18;100.00;96652.59;5006043;28;20242;-61
2022/03/29 02:30:22;;;;;;;12.27;9.63;;;;;;;4.17;100.00;96651.78;4964870;28;20856;-64
2022/03/29 02:32:51;;;;;;;14.90;9.67;;;;;;;4.13;100.00;96645.19;5001798;28;20211;-66
2022/03/29 02:35:19;;;;;;;13.57;9.03;;;;;;;4.13;100.00;96649.63;5005070;28;20205;-66
2022/03/29 02:37:47;;;;;;;10.93;9.23;;;;;;;4.09;100.00;96645.66;5004812;28;20266;-65
2022/03/29 02:40:16;;;;;;;10.70;9.63;;;;;;;4.04;100.00;96648.75;5003947;28;20567;-64
2022/03/29 02:42:45;;;;;;;10.27;9.27;;;;;;;3.93;100.00;96641.16;5004015;28;20205;-66
2022/03/29 02:45:15;;;;;;;11.60;9.40;;;;;;;3.95;100.00;96642.63;4965239;28;20216;-65
2022/03/29 02:47:46;;;;;;;11.33;9.90;;;;;;;3.93;100.00;96636.72;5007396;28;20343;-67
2022/03/29 02:50:15;;;;;;;11.10;9.23;;;;;;;3.91;100.00;96636.06;5003865;28;20282;-64
2022/03/29 02:52:44;;;;;;;11.50;9.67;;;;;;;3.89;100.00;96635.38;5007422;28;20205;-63
2022/03/29 02:55:13;;;;;;;11.37;8.60;;;;;;;3.89;100.00;96632.75;5007218;28;20204;-64
2022/03/29 02:57:41;;;;;;;14.27;10.67;;;;;;;3.81;100.00;96623.09;5006091;28;20233;-65
2022/03/29 03:00:15;;;;;;;13.57;11.47;;;;;;;3.69;100.00;96624.28;4978546;28;20740;-63
2022/03/29 03:02:46;;;;;;;15.30;12.63;;;;;;;3.66;100.00;96629.84;5003759;28;20236;-63
2022/03/29 03:05:15;;;;;;;17.83;10.10;;;;;;;3.70;100.00;96629.41;5006218;28;20236;-63
2022/03/29 03:07:45;;;;;;;13.00;10.57;;;;;;;3.64;100.00;96630.03;4978470;28;20256;-62
2022/03/29 03:10:14;;;;;;;14.10;12.03;;;;;;;3.57;100.00;96631.59;5005669;28;20224;-66
2022/03/29 03:12:43;;;;;;;13.50;10.10;;;;;;;3.57;100.00;96634.19;5007578;28;20730;-64
2022/03/29 03:15:13;;;;;;;13.00;11.67;;;;;;;3.51;100.00;96634.81;5007844;28;20969;-63
2022/03/29 03:17:41;;;;;;;10.53;9.47;;;;;;;3.52;100.00;96632.06;4962875;28;20219;-61
2022/03/29 03:20:14;;;;;;;10.63;9.40;;;;;;;3.55;100.00;96633.53;5008070;28;20700;-62
2022/03/29 03:22:43;;;;;;;11.53;9.90;;;;;;;3.52;100.00;96621.59;4997617;28;20212;-61
2022/03/29 03:25:11;;;;;;;12.00;10.77;;;;;;;3.53;100.00;96627.63;5004087;28;20201;-65
2022/03/29 03:27:40;;;;;;;9.90;8.90;;;;;;;3.47;100.00;96618.59;4998348;28;20313;-61
2022/03/29 03:30:11;;;;;;;10.33;9.23;;;;;;;3.44;100.00;96624.97;5001492;28;20315;-63
2022/03/29 03:32:40;;;;;;;10.73;9.70;;;;;;;3.47;100.00;96626.47;4958321;28;20727;-61
2022/03/29 03:35:11;;;;;;;14.13;10.17;;;;;;;3.47;100.00;96624.66;4988475;28;20213;-61
2022/03/29 03:37:40;;;;;;;10.60;9.57;;;;;;;3.53;100.00;96625.00;4997090;28;20756;-62
2022/03/29 03:40:10;;;;;;;11.03;9.47;;;;;;;3.53;100.00;96623.22;4984181;28;20575;-64
2022/03/29 03:42:38;;;;;;;11.77;10.07;;;;;;;3.51;100.00;96619.09;5003656;28;20212;-61
2022/03/29 03:45:08;;;;;;;12.83;8.63;;;;;;;3.53;100.00;96618.00;5006182;28;20240;-62
2022/03/29 03:47:37;;;;;;;10.03;9.03;;;;;;;3.55;100.00;96616.03;4976075;28;20291;-64
2022/03/29 03:50:08;;;;;;;14.20;10.13;;;;;;;3.60;100.00;96620.81;4994095;28;20236;-66
2022/03/29 03:52:37;;;;;;;11.53;10.10;;;;;;;3.53;100.00;96611.91;5002785;28;20204;-61
2022/03/29 03:55:07;;;;;;;10.13;9.00;;;;;;;3.56;100.00;96611.59;5001949;28;20823;-64
2022/03/29 03:57:36;;;;;;;10.63;9.67;;;;;;;3.58;100.00;96607.03;4984628;28;20209;-62
2022/03/29 04:00:06;;;;;;;12.00;9.10;;;;;;;3.61;100.00;96610.19;5001068;28;20319;-65
2022/03/29 04:02:34;;;;;;;12.37;8.93;;;;;;;3.56;100.00;96603.75;4987249;28;20209;-64
2022/03/29 04:05:03;;;;;;;13.60;9.57;;;;;;;3.61;100.00;96606.75;4989009;28;20222;-64
2022/03/29 04:07:32;;;;;;;12.43;10.23;;;;;;;3.61;100.00;96607.56;5002538;28;21489;-64
2022/03/29 04:10:01;;;;;;;10.90;9.67;;;;;;;3.59;100.00;96599.03;5006034;28;20360;-65
2022/03/29 04:12:29;;;;;;;12.50;10.57;;;;;;;3.52;100.00;96599.78;4988776;28;20307;-60
2022/03/29 04:14:58;;;;;;;10.97;9.20;;;;;;;3.54;100.00;96606.53;5002777;28;20937;-65
2022/03/29 04:17:26;;;;;;;12.53;10.67;;;;;;;3.57;100.00;96597.53;5006492;28;20313;-64
2022/03/29 04:19:54;;;;;;;14.67;10.43;;;;;;;3.54;100.00;96597.84;4967860;28;20234;-65
2022/03/29 04:22:23;;;;;;;11.17;9.97;;;;;;;3.54;100.00;96592.59;5005057;28;21544;-64
2022/03/29 04:24:51;;;;;;;11.03;9.93;;;;;;;3.53;100.00;96586.56;4999471;28;20223;-63
2022/03/29 04:27:21;;;;;;;10.90;9.90;;;;;;;3.53;100.00;96590.97;4990915;28;20312;-62
2022/03/29 04:29:49;;;;;;;14.97;11.13;;;;;;;3.52;100.00;96584.06;5002532;28;20322;-66
2022/03/29 04:32:17;;;;;;;12.80;11.03;;;;;;;3.56;100.00;96593.25;5004327;28;20319;-62
2022/03/29 04:34:46;;;;;;;16.73;11.57;;;;;;;3.55;100.00;96589.84;4965612;28;21099;-61
2022/03/29 04:37:14;;;;;;;15.27;10.53;;;;;;;3.47;100.00;96590.59;5004126;28;20204;-65
2022/03/29 04:39:43;;;;;;;12.07;10.90;;;;;;;3.45;100.00;96591.75;5003705;28;20310;-63
2022/03/29 04:42:11;;;;;;;13.27;11.13;;;;;;;3.45;100.00;96589.13;4992449;28;20203;-61
2022/03/29 04:44:40;;;;;;;14.07;12.33;;;;;;;3.31;100.00;96583.44;5004809;28;20362;-63
2022/03/29 04:47:09;;;;;;;16.20;11.73;;;;;;;3.32;100.00;96576.44;5006660;28;20799;-65
2022/03/29 04:49:38;;;;;;;14.17;10.77;;;;;;;3.26;100.00;96570.00;4979750;28;20524;-63
2022/03/29 04:52:07;;;;;;;12.30;10.70;;;;;;;3.33;100.00;96572.84;4996565;28;20212;-61
2022/03/29 04:54:35;;;;;;;11.97;10.63;;;;;;;3.33;100.00;96567.59;5001684;28;20240;-62
2022/03/29 04:57:04;;;;;;;17.80;11.93;;;;;;;3.24;100.00;96568.53;5004480;28;20978;-64
2022/03/29 04:59:32;;;;;;;12.33;10.73;;;;;;;3.14;100.00;96553.72;4989363;28;20236;-63
2022/03/29 05:02:02;;;;;;;10.90;9.77;;;;;;;3.19;100.00;96556.69;5002554;28;20307;-60
2022/03/29 05:04:30;;;;;;;11.77;10.50;;;;;;;3.24;100.00;96571.16;5009638;28;20219;-63
2022/03/29 05:06:58;;;;;;;11.60;9.27;;;;;;;3.17;100.00;96566.50;4970050;28;20296;-62
2022/03/29 05:09:26;;;;;;;17.03;11.70;;;;;;;3.15;100.00;96562.41;4988029;28;20311;-61
2022/03/29 05:11:57;;;;;;;14.03;11.23;;;;;;;3.15;100.00;96565.81;4992798;28;20347;-65
2022/03/29 05:14:25;;;;;;;11.20;10.00;;;;;;;3.19;100.00;96569.78;4991124;28;20212;-65
2022/03/29 05:16:53;;;;;;;12.50;9.87;;;;;;;3.23;100.00;96566.88;5009634;28;20227;-66
2022/03/29 05:19:23;;;;;;;11.60;10.37;;;;;;;3.23;100.00;96566.88;4990220;28;20346;-62
2022/03/29 05:21:51;;;;;;;11.77;10.57;;;;;;;3.25;100.00;96557.06;4971249;28;20204;-61
2022/03/29 05:24:19;;;;;;;10.67;9.67;;;;;;;3.21;100.00;96555.72;5006486;28;20262;-61
2022/03/29 05:26:48;;;;;;;11.70;10.33;;;;;;;3.14;100.00;96556.31;5007011;28;20226;-65
2022/03/29 05:29:18;;;;;;;18.47;10.67;;;;;;;3.11;100.00;96548.78;4992569;28;20662;-60
2022/03/29 05:31:46;;;;;;;12.13;10.90;;;;;;;3.08;100.00;96558.75;5007318;28;20777;-63
2022/03/29 05:34:14;;;;;;;17.47;11.60;;;;;;;3.03;100.00;96561.81;4987776;28;20215;-62
2022/03/29 05:36:46;;;;;;;22.00;12.90;;;;;;;3.08;100.00;96551.72;5007912;28;20287;-59
2022/03/29 05:39:14;;;;;;;12.20;10.60;;;;;;;3.11;100.00;96553.22;4969209;28;20215;-61
2022/03/29 05:41:43;;;;;;;12.00;10.73;;;;;;;3.19;100.00;96555.88;5007893;28;20232;-64
2022/03/29 05:44:11;;;;;;;14.20;11.33;;;;;;;3.19;100.00;96554.06;4998547;28;20252;-62
2022/03/29 05:49:26;;;;;;;17.23;11.87;;;;;;;3.31;100.00;96557.25;5002851;28;20252;-63
2022/03/29 05:51:56;;;;;;;13.43;10.47;;;;;;;3.40;100.00;96555.53;5006395;28;20581;-62
2022/03/29 05:54:24;;;;;;;18.47;11.60;;;;;;;3.53;100.00;96557.75;4964154;28;21152;-60
2022/03/29 05:56:54;;;;;;;17.43;11.17;;;;;;;3.61;100.00;96559.59;5010427;28;20212;-62
2022/03/29 05:59:22;;;;;;;14.87;10.80;;;;;;;3.73;100.00;96552.25;5006947;28;20200;-66
2022/03/29 06:01:50;;;;;;;17.77;11.60;;;;;;;3.73;100.00;96553.09;4995777;28;20644;-61
2022/03/29 06:04:22;;;;;;;20.53;11.53;;;;;;;3.78;100.00;96557.03;4989177;28;20212;-63
2022/03/29 06:06:51;;;;;;;22.90;13.10;;;;;;;3.94;100.00;96557.09;5002489;28;20201;-65
2022/03/29 06:09:21;;;;;;;21.03;11.30;;;;;;;3.96;100.00;96554.34;4967771;28;20243;-62
2022/03/29 06:11:49;;;;;;;19.83;12.33;;;;;;;3.96;100.00;96560.38;5007250;28;20291;-63
2022/03/29 06:14:17;;;;;;;26.10;12.73;;;;;;;3.99;100.00;96554.84;5003560;28;20291;-62
2022/03/29 06:16:45;;;;;;;14.93;11.50;;;;;;;4.04;100.00;96546.50;4993942;28;20204;-64
2022/03/29 06:19:15;;;;;;;23.83;11.80;;;;;;;4.05;100.00;96548.16;4996913;28;20236;-63
2022/03/29 06:21:43;;;;;;;18.30;12.30;;;;;;;4.10;100.00;96553.72;5002690;28;20216;-60
2022/03/29 06:24:12;;;;;;;21.40;13.60;;;;;;;4.16;100.00;96553.09;4966267;28;20394;-60
2022/03/29 06:26:41;;;;;;;17.67;11.57;;;;;;;4.23;100.00;96555.91;5004484;28;20288;-64
2022/03/29 06:29:11;;;;;;;14.17;10.67;;;;;;;4.31;100.00;96553.31;5004803;28;20299;-63
2022/03/29 06:31:39;;;;;;;14.70;10.83;;;;;;;4.46;100.00;96555.31;4993768;28;20575;-65
2022/03/29 06:34:08;;;;;;;14.10;11.53;;;;;;;4.59;100.00;96554.84;5005532;28;20212;-63
2022/03/29 06:36:37;;;;;;;15.60;11.07;;;;;;;4.67;100.00;96554.88;4994021;28;20209;-62
2022/03/29 06:39:07;;;;;;;12.63;10.60;;;;;;;4.80;100.00;96548.31;4993171;28;20228;-63
2022/03/29 06:41:36;;;;;;;11.37;10.17;;;;;;;4.87;100.00;96552.75;4990129;28;20212;-62
2022/03/29 06:44:07;;;;;;;11.23;10.00;;;;;;;5.02;100.00;96557.34;5004094;28;20297;-66
2022/03/29 06:46:35;;;;;;;11.23;10.07;;;;;;;5.06;100.00;96551.59;4989273;28;21644;-63
2022/03/29 06:49:06;;;;;;;15.23;11.50;;;;;;;5.06;100.00;96556.03;5006898;28;20286;-63
2022/03/29 06:51:35;;;;;;;12.40;11.20;;;;;;;5.09;100.00;96555.69;4998205;28;20945;-61
2022/03/29 06:54:05;;;;;;;16.30;11.37;;;;;;;5.03;100.00;96551.94;5004290;28;20290;-63
2022/03/29 06:56:33;;;;;;;23.67;13.17;;;;;;;5.14;100.00;96555.19;4968477;28;20832;-65
2022/03/29 06:59:02;;;;;;;14.53;10.57;;;;;;;5.09;100.00;96550.44;5005792;28;20219;-66
2022/03/29 07:01:32;;;;;;;15.00;11.27;;;;;;;5.22;100.00;96552.56;5001692;28;20193;-62
2022/03/29 07:04:02;;;;;;;15.53;12.03;;;;;;;5.45;100.00;96551.88;4991136;28;21418;-64
2022/03/29 07:06:31;;;;;;;13.33;11.63;;;;;;;5.59;100.00;96547.75;4986843;28;20393;-65
2022/03/29 07:12:02;;;;;;;14.37;11.97;;;;;;;6.04;100.00;96530.53;4967004;28;20306;-62
2022/03/29 07:14:30;;;;;;;30.50;13.07;;;;;;;6.36;100.00;96541.91;5002972;28;20258;-62
2022/03/29 07:17:00;;;;;;;15.27;13.13;;;;;;;6.49;100.00;96538.69;5001682;28;20212;-65
2022/03/29 07:19:28;;;;;;;16.13;13.20;;;;;;;6.60;100.00;96536.66;4992570;28;20523;-60
2022/03/29 07:21:57;;;;;;;16.60;12.77;;;;;;;6.57;100.00;96537.00;4990283;28;20395;-66
2022/03/29 07:24:25;;;;;;;22.40;12.93;;;;;;;6.76;100.00;96546.25;5004958;28;20204;-62
2022/03/29 07:26:54;;;;;;;18.77;12.80;;;;;;;7.02;100.00;96537.19;4955993;28;21882;-66
2022/03/29 07:29:22;;;;;;;20.43;12.80;;;;;;;7.10;100.00;96534.47;4997412;28;20212;-61
2022/03/29 07:31:50;;;;;;;15.00;12.43;;;;;;;7.22;100.00;96533.03;5002764;28;20252;-63
2022/03/29 07:34:21;;;;;;;13.77;12.00;;;;;;;7.30;100.00;96545.34;4992631;28;20816;-64
2022/03/29 07:36:49;;;;;;;17.40;13.30;;;;;;;7.29;100.00;96540.22;4980659;28;20204;-65
2022/03/29 07:39:17;;;;;;;18.47;13.57;;;;;;;7.46;100.00;96546.16;5004480;28;20277;-64
2022/03/29 07:41:45;;;;;;;14.57;12.77;;;;;;;7.39;100.00;96540.81;4999207;28;20197;-63
2022/03/29 07:44:13;;;;;;;16.87;13.07;;;;;;;7.44;100.00;96537.63;4966170;28;20216;-58
2022/03/29 07:46:41;;;;;;;17.03;13.40;;;;;;;7.65;100.00;96540.38;5001228;28;20208;-61
2022/03/29 07:49:10;;;;;;;13.40;12.10;;;;;;;7.80;100.00;96535.13;4993198;28;20768;-62
2022/03/29 07:51:59;;;;;;;14.13;12.73;;;;;;;8.11;100.00;96535.91;4989300;28;20258;-63
2022/03/29 07:54:27;;;;;;;19.80;13.30;;;;;;;8.17;100.00;96539.63;4999047;28;20207;-60
2022/03/29 07:56:56;;;;;;;18.13;14.27;;;;;;;8.25;100.00;96539.53;4999724;28;20599;-64
2022/03/29 07:59:24;;;;;;;16.03;14.43;;;;;;;8.47;100.00;96521.06;4964512;28;20240;-62
2022/03/29 08:01:54;;;;;;;21.63;14.17;;;;;;;8.72;98.17;96526.88;5000913;28;20193;-64
2022/03/29 08:04:42;;;;;;;17.87;14.77;;;;;;;8.81;95.59;96523.06;4986701;28;20204;-62
2022/03/29 08:07:11;;;;;;;17.00;12.90;;;;;;;8.76;91.51;96527.28;4986569;28;20225;-61
2022/03/29 08:09:39;;;;;;;19.47;14.10;;;;;;;8.83;89.67;96530.81;4999116;28;20735;-59
2022/03/29 08:12:08;;;;;;;17.33;13.73;;;;;;;8.80;86.44;96526.72;5007854;28;20306;-61
2022/03/29 08:14:37;;;;;;;20.13;14.23;;;;;;;8.79;92.28;96513.69;4978379;28;20311;-62
2022/03/29 08:17:06;;;;;;;18.70;14.03;;;;;;;9.01;94.67;96521.63;4992467;28;20204;-62
2022/03/29 08:19:34;;;;;;;17.50;14.73;;;;;;;9.08;94.78;96523.28;4988448;28;20263;-61
2022/03/29 08:22:02;;;;;;;17.53;14.10;;;;;;;9.09;96.38;96518.84;5000378;28;20388;-62
2022/03/29 08:24:33;;;;;;;22.53;14.40;;;;;;;9.18;92.32;96517.69;4988179;28;20223;-59
2022/03/29 08:27:01;;;;;;;19.03;15.57;;;;;;;9.18;93.99;96520.34;5003520;28;20399;-62
2022/03/29 08:29:29;;;;;;;17.43;14.27;;;;;;;9.36;89.10;96516.41;4991548;28;20227;-62
2022/03/29 08:31:58;;;;;;;19.73;13.63;;;;;;;9.33;90.15;96509.66;4974707;28;20396;-64
2022/03/29 08:34:26;;;;;;;16.10;14.30;;;;;;;9.44;89.88;96505.69;5005055;28;20253;-62
2022/03/29 08:36:54;;;;;;;20.70;14.57;;;;;;;9.68;89.62;96506.25;4989839;28;20787;-63
2022/03/29 08:39:22;;;;;;;21.73;13.67;;;;;;;9.80;83.25;96503.84;4994001;28;20223;-63
2022/03/29 08:41:56;;;;;;;15.83;13.97;;;;;;;9.89;86.00;96502.69;5005060;28;20394;-64
2022/03/29 08:44:27;;;;;;;17.17;14.60;;;;;;;10.10;83.84;96493.00;5009027;28;20287;-63
2022/03/29 08:46:55;;;;;;;26.67;15.27;;;;;;;10.11;76.17;96505.22;4967894;28;20235;-63
2022/03/29 08:49:24;;;;;;;20.07;15.43;;;;;;;10.17;77.33;96501.75;5003829;28;20602;-63
2022/03/29 08:51:52;;;;;;;19.23;15.77;;;;;;;10.24;71.69;96501.81;4990442;28;20569;-61
2022/03/29 08:54:20;;;;;;;17.00;13.97;;;;;;;10.30;72.36;96495.69;4993211;28;20209;-62
2022/03/29 08:56:49;;;;;;;20.10;14.30;;;;;;;10.40;70.07;96493.50;5004202;28;20212;-64
2022/03/29 08:59:18;;;;;;;15.83;14.00;;;;;;;10.51;69.43;96489.47;5009187;28;20209;-58
2022/03/29 09:01:46;;;;;;;18.93;14.17;;;;;;;10.49;66.53;96488.06;4965447;28;20764;-64
2022/03/29 09:04:16;;;;;;;22.23;15.23;;;;;;;10.66;64.14;96484.00;5006140;28;20283;-61
2022/03/29 09:06:56;;;;;;;24.37;14.50;;;;;;;10.68;64.65;96475.88;4989842;28;20571;-60
2022/03/29 09:09:25;;;;;;;21.67;15.17;;;;;;;10.81;64.09;96472.41;4993858;28;20232;-60
2022/03/29 09:11:55;;;;;;;17.73;13.33;;;;;;;10.77;63.31;96471.16;5000520;28;20449;-62
2022/03/29 09:14:25;;;;;;;18.63;14.00;;;;;;;10.81;65.83;96472.41;5007902;28;20299;-61
2022/03/29 09:16:54;;;;;;;17.23;14.03;;;;;;;10.83;64.37;96475.69;4960151;28;20336;-62
2022/03/29 09:19:25;;;;;;;16.53;13.77;;;;;;;11.06;63.93;96469.13;5007485;28;20257;-60
2022/03/29 09:21:55;;;;;;;17.33;14.77;;;;;;;11.15;63.81;96475.84;4989034;28;20211;-60
2022/03/29 09:24:24;;;;;;;16.27;14.33;;;;;;;11.05;64.03;96467.50;4996504;28;20220;-60
2022/03/29 09:26:54;;;;;;;20.13;15.40;;;;;;;11.11;64.38;96467.53;5000823;28;20770;-61
2022/03/29 09:29:26;;;;;;;19.20;14.43;;;;;;;11.29;65.51;96463.41;5009253;28;20627;-64
2022/03/29 09:32:05;;;;;;;17.63;13.40;;;;;;;11.34;62.13;96468.09;5002225;28;20465;-63
2022/03/29 09:34:34;;;;;;;25.47;15.33;;;;;;;11.36;61.60;96460.75;4966009;28;20285;-61
2022/03/29 09:37:04;;;;;;;16.97;14.80;;;;;;;11.27;62.30;96455.69;4989935;28;20929;-59
2022/03/29 09:39:35;;;;;;;23.47;16.47;;;;;;;11.23;62.96;96451.81;5001978;28;21412;-62
2022/03/29 09:42:06;;;;;;;16.57;14.33;;;;;;;11.57;63.56;96455.22;4998066;28;21002;-64
2022/03/29 09:44:39;;;;;;;18.93;13.87;;;;;;;11.75;62.21;96451.06;5005499;28;20200;-61
2022/03/29 09:47:08;;;;;;;21.83;13.97;;;;;;;11.75;62.27;96447.63;5005511;28;20580;-60
2022/03/29 09:49:52;;;;;;;15.73;14.07;;;;;;;11.79;61.22;96441.66;4962889;28;20731;-61
2022/03/29 09:52:23;;;;;;;20.03;14.40;;;;;;;11.86;60.55;96445.09;5010096;28;20224;-62
2022/03/29 09:55:16;;;;;;;18.23;14.03;;;;;;;12.10;60.36;96440.13;4987398;28;20312;-59
2022/03/29 09:57:46;;;;;;;17.20;14.13;;;;;;;12.20;59.19;96437.03;4993962;28;20563;-60
2022/03/29 10:00:19;;;;;;;29.53;14.63;;;;;;;12.29;58.55;96434.91;5007781;28;20315;-64
2022/03/29 10:02:48;;;;;;;20.03;14.10;;;;;;;12.36;59.31;96433.06;4999603;28;20200;-61
2022/03/29 10:05:18;;;;;;;16.80;14.00;;;;;;;12.59;59.09;96419.22;4962444;28;20818;-60
2022/03/29 10:07:51;;;;;;;20.03;15.37;;;;;;;12.81;58.76;96420.69;4988077;28;20762;-62
2022/03/29 10:10:20;;;;;;;28.93;16.07;;;;;;;12.85;56.23;96424.53;5007837;28;20228;-61
2022/03/29 10:12:48;;;;;;;17.77;14.57;;;;;;;12.76;57.72;96416.00;5003689;28;20368;-62
2022/03/29 10:15:38;;;;;;;25.20;15.77;;;;;;;12.99;57.58;96418.06;5004199;28;20217;-59
2022/03/29 10:18:07;;;;;;;21.10;15.30;;;;;;;13.03;55.47;96416.59;5004687;28;20282;-62
2022/03/29 10:20:35;;;;;;;20.93;14.93;;;;;;;12.91;56.92;96410.38;4943027;28;22047;-62
2022/03/29 10:23:04;;;;;;;16.73;14.43;;;;;;;13.06;56.78;96404.72;5005893;28;20299;-64
2022/03/29 10:25:33;;;;;;;19.30;16.30;;;;;;;13.03;55.84;96397.19;4988845;28;20216;-60
2022/03/29 10:28:02;;;;;;;18.83;13.67;;;;;;;13.29;55.68;96403.28;4990718;28;20760;-59
2022/03/29 10:30:34;;;;;;;17.73;14.93;;;;;;;13.49;55.02;96391.63;5001703;28;20411;-63
2022/03/29 10:33:22;;;;;;;20.17;14.47;;;;;;;13.46;54.85;96388.38;5007665;28;20219;-62
2022/03/29 10:36:06;;;;;;;20.37;14.70;;;;;;;13.70;56.12;96379.72;4963962;28;20473;-63
2022/03/29 10:38:57;;;;;;;16.93;14.70;;;;;;;13.67;54.92;96385.47;5002075;28;20295;-62
2022/03/29 10:41:52;;;;;;;18.77;14.97;;;;;;;13.67;54.41;96373.00;4983153;28;20228;-60
2022/03/29 10:44:21;;;;;;;24.10;16.10;;;;;;;13.54;53.41;96375.81;4985437;28;20212;-63
2022/03/29 10:46:51;;;;;;;19.70;15.67;;;;;;;13.68;54.64;96371.13;5003016;28;21078;-63
2022/03/29 10:49:24;;;;;;;17.03;14.93;;;;;;;13.59;53.79;96355.47;4993472;28;20200;-61
2022/03/29 10:51:54;;;;;;;17.80;14.97;;;;;;;13.83;54.77;96357.44;4993253;28;20319;-62
2022/03/29 10:54:31;;;;;;;22.13;16.13;;;;;;;13.88;54.27;96350.41;5001598;28;20302;-63
2022/03/29 10:57:01;;;;;;;17.60;15.23;;;;;;;14.06;51.87;96345.25;5005169;28;20224;-64
2022/03/29 10:59:30;;;;;;;21.07;14.80;;;;;;;14.12;53.39;96347.00;4982853;28;20331;-62
2022/03/29 11:02:11;;;;;;;22.17;15.50;;;;;;;14.18;52.80;96346.09;5004223;28;20754;-63
2022/03/29 11:05:05;;;;;;;20.23;14.37;;;;;;;14.45;51.36;96335.03;4959509;28;20379;-64
2022/03/29 11:07:35;;;;;;;18.90;14.10;;;;;;;14.59;50.16;96340.97;4996687;28;20202;-60
2022/03/29 11:10:14;;;;;;;19.80;15.77;;;;;;;14.55;50.37;96335.28;4988999;28;20782;-63
2022/03/29 11:12:48;;;;;;;18.23;15.20;;;;;;;14.71;50.64;96336.47;5001440;28;20335;-64
2022/03/29 11:15:48;;;;;;;21.23;14.17;;;;;;;14.96;49.61;96327.41;4990982;28;20766;-61
2022/03/29 11:18:50;;;;;;;20.63;15.30;;;;;;;15.01;49.89;96319.56;5003717;28;20516;-62
2022/03/29 11:21:40;;;;;;;21.63;15.97;;;;;;;15.12;49.28;96325.91;4960958;28;20362;-60
2022/03/29 11:24:13;;;;;;;21.53;15.47;;;;;;;15.33;48.41;96316.47;5001923;28;20788;-65
2022/03/29 11:26:58;;;;;;;21.23;16.43;;;;;;;15.46;47.62;96307.38;4985676;28;20330;-64
2022/03/29 11:29:26;;;;;;;19.43;14.83;;;;;;;15.65;47.90;96309.06;4990808;28;20255;-61
2022/03/29 11:31:56;;;;;;;19.07;14.37;;;;;;;15.57;47.67;96299.59;5004477;28;20712;-64
2022/03/29 11:34:38;;;;;;;19.93;14.00;;;;;;;15.60;48.12;96288.44;5002616;28;20323;-62
2022/03/29 11:37:09;;;;;;;17.97;14.73;;;;;;;15.92;47.01;96296.00;4959232;28;20228;-65
2022/03/29 11:39:37;;;;;;;21.10;15.27;;;;;;;16.06;47.43;96285.78;4984459;28;20850;-65
2022/03/29 11:42:06;;;;;;;19.60;14.73;;;;;;;16.14;45.88;96287.25;5002482;28;20231;-64